Terminal Aerodrome Forecast
Issued by NWS

Home | Current Version | Previous Version | Text Only | Print | Product List | Glossary Off
Versions: 1 2 3 4 5 6 7 8 9 10 11 12 13 14 15 16 17 18 19 20 21 22

000
FTUS43 KMPX 221507 AAA
TAFRNH
TAF AMD
KRNH 221507Z 2215/2312 VRB03KT P6SM SCT250
     FM221800 28008KT P6SM SCT040
     FM222000 31010KT P6SM VCSH SCT050 SCT110
     FM230100 VRB03KT P6SM FEW250=

USA.gov is the U.S. government's official web portal to all federal, state and local government web resources and services.